Time;durP1;ratioP1;P1;durP2;ratioP2;P2;SDS_P1;SDS_P2;PMS_P1;PMS_P2;Temp;Humidity;BMP_temperature;BMP_pressure;BME280_temperature;BME280_humidity;BME280_pressure;Samples;Min_cycle;Max_cycle;Signal;HPM_P1;HPM_P2
2022/10/19 00:01:46;;;;;;;8.60;6.30;;;;;;;;;;6621823;28;20182;-84
2022/10/19 00:04:56;;;;;;;7.30;6.60;;;;;;;;;;6622626;28;20172;-83
2022/10/19 00:08:07;;;;;;;8.37;6.87;;;;;;;;;;6622741;28;20172;-83
2022/10/19 00:11:17;;;;;;;11.53;10.27;;;;;;;;;;6621764;28;20168;-84
2022/10/19 00:14:28;;;;;;;8.07;7.27;;;;;;;;;;6621733;28;20572;-83
2022/10/19 00:17:38;;;;;;;8.87;7.73;;;;;;;;;;6621432;28;20175;-83
2022/10/19 00:20:49;;;;;;;7.97;7.17;;;;;;;;;;6622027;28;20199;-83
2022/10/19 00:23:59;;;;;;;8.50;7.60;;;;;;;;;;6622129;28;20175;-83
2022/10/19 00:27:09;;;;;;;8.97;8.00;;;;;;;;;;6621765;28;20251;-83
2022/10/19 00:30:19;;;;;;;9.47;8.07;;;;;;;;;;6624428;28;20528;-84
2022/10/19 00:33:30;;;;;;;10.17;8.43;;;;;;;;;;6627535;28;20164;-84
2022/10/19 00:36:40;;;;;;;8.83;7.80;;;;;;;;;;6626070;28;20547;-84
2022/10/19 00:39:50;;;;;;;9.53;8.13;;;;;;;;;;6626417;28;20230;-83
2022/10/19 00:43:01;;;;;;;9.70;8.70;;;;;;;;;;6627012;28;20266;-83
2022/10/19 00:46:12;;;;;;;10.43;8.83;;;;;;;;;;6626544;28;20168;-83
2022/10/19 00:49:24;;;;;;;10.70;8.43;;;;;;;;;;6626054;28;20176;-83
2022/10/19 00:52:35;;;;;;;10.13;8.50;;;;;;;;;;6626030;28;20588;-83
2022/10/19 00:55:45;;;;;;;11.97;9.03;;;;;;;;;;6625772;28;20219;-83
2022/10/19 00:58:55;;;;;;;10.83;9.00;;;;;;;;;;6625946;28;20202;-83
2022/10/19 01:02:06;;;;;;;12.87;9.20;;;;;;;;;;6626246;28;20179;-82
2022/10/19 01:05:17;;;;;;;10.33;8.63;;;;;;;;;;6625909;28;20167;-82
2022/10/19 01:08:27;;;;;;;11.80;9.67;;;;;;;;;;6608173;28;20179;-82
2022/10/19 01:11:38;;;;;;;12.70;9.53;;;;;;;;;;6626342;28;20170;-82
2022/10/19 01:14:48;;;;;;;12.57;10.07;;;;;;;;;;6625676;28;20184;-82
2022/10/19 01:18:01;;;;;;;12.80;9.77;;;;;;;;;;6625528;28;20221;-83
2022/10/19 01:21:17;;;;;;;12.27;10.17;;;;;;;;;;6608745;28;20686;-83
2022/10/19 01:24:50;;;;;;;13.00;10.60;;;;;;;;;;6625822;28;20157;-83
2022/10/19 01:28:00;;;;;;;11.17;9.97;;;;;;;;;;6626329;28;20198;-82
2022/10/19 01:31:30;;;;;;;10.60;8.37;;;;;;;;;;6607704;28;20275;-83
2022/10/19 01:34:59;;;;;;;13.00;10.50;;;;;;;;;;6625518;28;20270;-83
2022/10/19 01:38:15;;;;;;;12.93;10.13;;;;;;;;;;6624956;28;20225;-83
2022/10/19 01:41:48;;;;;;;11.37;10.07;;;;;;;;;;6625333;28;20255;-86
2022/10/19 01:45:13;;;;;;;10.97;9.47;;;;;;;;;;6578661;28;20565;-84
2022/10/19 01:48:27;;;;;;;12.40;10.07;;;;;;;;;;6607592;28;20632;-83
2022/10/19 01:51:41;;;;;;;14.20;10.30;;;;;;;;;;6607625;28;20176;-84
2022/10/19 01:54:53;;;;;;;14.00;10.03;;;;;;;;;;6625099;28;20168;-83
2022/10/19 01:58:06;;;;;;;11.77;9.53;;;;;;;;;;6625071;28;20236;-83
2022/10/19 02:01:17;;;;;;;13.20;10.70;;;;;;;;;;6625584;28;20199;-83
2022/10/19 02:04:27;;;;;;;11.93;9.27;;;;;;;;;;6625037;28;20184;-83
2022/10/19 02:07:39;;;;;;;11.47;10.23;;;;;;;;;;6606768;28;20183;-83
2022/10/19 02:10:49;;;;;;;16.67;10.23;;;;;;;;;;6624237;28;20187;-83
2022/10/19 02:14:03;;;;;;;15.80;10.80;;;;;;;;;;6624806;28;20238;-83
2022/10/19 02:17:16;;;;;;;14.50;10.77;;;;;;;;;;6624132;28;20175;-83
2022/10/19 02:20:27;;;;;;;11.43;10.00;;;;;;;;;;6607308;28;20636;-83
2022/10/19 02:23:38;;;;;;;15.70;10.60;;;;;;;;;;6624595;28;20314;-83
2022/10/19 02:26:49;;;;;;;16.23;10.37;;;;;;;;;;6623964;28;20195;-83
2022/10/19 02:29:59;;;;;;;14.10;10.27;;;;;;;;;;6623864;28;20536;-83
2022/10/19 02:33:11;;;;;;;15.30;10.57;;;;;;;;;;6623592;28;20174;-83
2022/10/19 02:36:21;;;;;;;12.80;10.07;;;;;;;;;;6623559;28;20171;-82
2022/10/19 02:39:32;;;;;;;14.67;11.10;;;;;;;;;;6624084;28;20644;-84
2022/10/19 02:42:44;;;;;;;14.83;11.10;;;;;;;;;;6623779;28;20167;-82
2022/10/19 02:46:04;;;;;;;15.07;10.50;;;;;;;;;;6623842;28;20251;-82
2022/10/19 02:49:14;;;;;;;12.63;10.20;;;;;;;;;;6624034;28;20172;-83
2022/10/19 02:52:25;;;;;;;13.37;10.37;;;;;;;;;;6624402;28;20164;-82
2022/10/19 02:55:35;;;;;;;13.97;10.77;;;;;;;;;;6622874;28;20613;-83
2022/10/19 02:58:45;;;;;;;14.83;10.60;;;;;;;;;;6624072;28;20278;-82
2022/10/19 03:01:56;;;;;;;13.80;10.87;;;;;;;;;;6623797;28;20168;-82
2022/10/19 03:05:06;;;;;;;15.97;10.43;;;;;;;;;;6623732;28;20613;-83
2022/10/19 03:08:16;;;;;;;13.53;10.73;;;;;;;;;;6623874;28;20195;-82
2022/10/19 03:11:27;;;;;;;15.07;11.03;;;;;;;;;;6623135;28;20172;-82
2022/10/19 03:14:37;;;;;;;13.23;10.50;;;;;;;;;;6622550;28;20635;-82
2022/10/19 03:17:51;;;;;;;13.33;10.73;;;;;;;;;;6622734;28;20164;-82
2022/10/19 03:21:05;;;;;;;15.10;10.63;;;;;;;;;;6622882;28;20188;-82
2022/10/19 03:24:16;;;;;;;18.13;11.17;;;;;;;;;;6622414;28;20182;-83
2022/10/19 03:27:27;;;;;;;16.47;11.63;;;;;;;;;;6604924;28;20176;-83
2022/10/19 03:30:38;;;;;;;17.40;11.67;;;;;;;;;;6605249;28;20180;-84
2022/10/19 03:33:49;;;;;;;16.50;11.43;;;;;;;;;;6622615;28;20172;-83
2022/10/19 03:36:59;;;;;;;14.43;10.80;;;;;;;;;;6622737;28;20167;-83
2022/10/19 03:40:10;;;;;;;16.07;11.20;;;;;;;;;;6622793;28;20192;-82
2022/10/19 03:43:20;;;;;;;19.53;12.30;;;;;;;;;;6622727;28;20287;-85
2022/10/19 03:46:31;;;;;;;16.57;11.67;;;;;;;;;;6622012;28;20179;-84
2022/10/19 03:49:42;;;;;;;16.10;12.03;;;;;;;;;;6622009;28;20261;-84
2022/10/19 03:52:53;;;;;;;16.60;12.07;;;;;;;;;;6622019;28;20206;-84
2022/10/19 03:56:05;;;;;;;18.33;12.57;;;;;;;;;;6621807;28;20263;-84
2022/10/19 03:59:15;;;;;;;16.93;12.07;;;;;;;;;;6621966;28;20195;-84
2022/10/19 04:02:25;;;;;;;16.80;11.77;;;;;;;;;;6622255;28;20530;-84
2022/10/19 04:05:36;;;;;;;16.47;12.37;;;;;;;;;;6603855;28;20178;-84
2022/10/19 04:08:47;;;;;;;17.40;12.00;;;;;;;;;;6621652;28;20194;-84
2022/10/19 04:11:58;;;;;;;16.83;12.13;;;;;;;;;;6622121;28;20167;-84
2022/10/19 04:15:08;;;;;;;18.00;12.73;;;;;;;;;;6622027;28;20500;-84
2022/10/19 04:18:18;;;;;;;17.03;12.63;;;;;;;;;;6622043;28;20210;-84
2022/10/19 04:21:30;;;;;;;18.03;12.30;;;;;;;;;;6621586;28;20616;-86
2022/10/19 04:24:41;;;;;;;16.13;12.50;;;;;;;;;;6622155;28;20215;-85
2022/10/19 04:27:51;;;;;;;14.87;12.00;;;;;;;;;;6604151;28;20175;-85
2022/10/19 04:31:02;;;;;;;16.23;11.47;;;;;;;;;;6621527;28;20176;-85
2022/10/19 04:34:13;;;;;;;14.97;11.93;;;;;;;;;;6621467;28;20739;-85
2022/10/19 04:37:23;;;;;;;16.97;11.43;;;;;;;;;;6622103;28;20168;-85
2022/10/19 04:40:35;;;;;;;14.50;10.70;;;;;;;;;;6621227;28;20195;-85
2022/10/19 04:43:45;;;;;;;13.27;11.20;;;;;;;;;;6621943;28;20258;-86
2022/10/19 04:46:56;;;;;;;13.33;10.60;;;;;;;;;;6621233;28;20536;-85
2022/10/19 04:50:06;;;;;;;14.37;11.03;;;;;;;;;;6621870;28;20176;-85
2022/10/19 04:53:18;;;;;;;12.27;8.47;;;;;;;;;;6621642;28;20640;-84
2022/10/19 04:56:29;;;;;;;11.53;8.80;;;;;;;;;;6621124;28;20278;-84
2022/10/19 04:59:39;;;;;;;11.30;8.00;;;;;;;;;;6621750;28;20286;-84
2022/10/19 05:02:50;;;;;;;12.33;9.43;;;;;;;;;;6621310;28;20179;-84
2022/10/19 05:06:00;;;;;;;11.70;8.43;;;;;;;;;;6620964;28;20183;-84
2022/10/19 05:09:10;;;;;;;9.53;8.57;;;;;;;;;;6621656;28;20647;-84
2022/10/19 05:12:21;;;;;;;11.50;9.30;;;;;;;;;;6621266;28;20288;-86
2022/10/19 05:15:31;;;;;;;12.57;8.60;;;;;;;;;;6622126;28;20176;-86
2022/10/19 05:18:45;;;;;;;14.97;8.33;;;;;;;;;;6626001;28;20187;-85
2022/10/19 05:21:55;;;;;;;9.50;8.10;;;;;;;;;;6625533;28;20179;-85
2022/10/19 05:25:06;;;;;;;13.63;7.90;;;;;;;;;;6625720;28;20222;-85
2022/10/19 05:28:16;;;;;;;13.33;8.37;;;;;;;;;;6625982;28;20670;-85
2022/10/19 05:31:28;;;;;;;12.43;9.20;;;;;;;;;;6625635;28;20199;-85
2022/10/19 05:34:38;;;;;;;14.17;8.53;;;;;;;;;;6625475;28;20171;-85
2022/10/19 05:37:52;;;;;;;11.50;8.60;;;;;;;;;;6625402;28;20175;-85
2022/10/19 05:41:03;;;;;;;10.93;7.93;;;;;;;;;;6625188;28;20194;-85
2022/10/19 05:44:20;;;;;;;10.03;7.87;;;;;;;;;;6607332;28;20546;-85
2022/10/19 05:47:32;;;;;;;11.17;8.37;;;;;;;;;;6624803;28;20263;-85
2022/10/19 05:50:51;;;;;;;9.93;6.77;;;;;;;;;;6624865;28;20241;-85
2022/10/19 05:54:02;;;;;;;10.20;7.47;;;;;;;;;;6625403;28;20160;-84
2022/10/19 05:57:12;;;;;;;11.53;7.80;;;;;;;;;;6624888;28;20743;-85
2022/10/19 06:00:23;;;;;;;9.83;8.37;;;;;;;;;;6625110;28;20199;-84
2022/10/19 06:03:33;;;;;;;8.60;6.93;;;;;;;;;;6624943;28;20172;-84
2022/10/19 06:06:44;;;;;;;9.00;7.10;;;;;;;;;;6625478;28;20686;-83
2022/10/19 06:09:55;;;;;;;14.23;8.30;;;;;;;;;;6624629;28;20168;-84
2022/10/19 06:13:05;;;;;;;9.00;7.20;;;;;;;;;;6624627;28;20179;-84
2022/10/19 06:16:16;;;;;;;10.73;8.50;;;;;;;;;;6625029;28;20496;-84
2022/10/19 06:19:26;;;;;;;9.93;6.97;;;;;;;;;;6607415;28;20599;-83
2022/10/19 06:22:37;;;;;;;11.77;8.23;;;;;;;;;;6624773;28;20222;-84
2022/10/19 06:25:47;;;;;;;11.50;8.60;;;;;;;;;;6607117;28;20230;-84
2022/10/19 06:28:59;;;;;;;11.97;8.70;;;;;;;;;;6624797;28;20229;-84
2022/10/19 06:32:09;;;;;;;10.57;8.30;;;;;;;;;;6623605;28;20275;-84
2022/10/19 06:35:19;;;;;;;10.13;8.90;;;;;;;;;;6622770;28;20628;-84
2022/10/19 06:38:30;;;;;;;12.67;10.37;;;;;;;;;;6622660;28;20644;-84
2022/10/19 06:41:40;;;;;;;14.27;9.00;;;;;;;;;;6610231;28;20176;-84
2022/10/19 06:44:50;;;;;;;9.43;8.07;;;;;;;;;;6610671;28;20167;-84
2022/10/19 06:48:01;;;;;;;9.87;7.83;;;;;;;;;;6615343;28;20183;-84
2022/10/19 06:51:12;;;;;;;9.97;8.33;;;;;;;;;;6623680;28;20211;-84
2022/10/19 06:54:24;;;;;;;12.20;8.87;;;;;;;;;;6614555;28;20172;-83
2022/10/19 06:57:34;;;;;;;11.50;8.50;;;;;;;;;;6622840;28;20247;-83
2022/10/19 07:00:45;;;;;;;12.23;8.83;;;;;;;;;;6608564;28;20210;-84
2022/10/19 07:03:55;;;;;;;9.03;8.07;;;;;;;;;;6609926;28;20250;-84
2022/10/19 07:07:06;;;;;;;11.47;8.40;;;;;;;;;;6616333;28;20172;-84
2022/10/19 07:10:16;;;;;;;12.40;8.57;;;;;;;;;;6622733;28;20500;-84
2022/10/19 07:13:27;;;;;;;12.50;8.87;;;;;;;;;;6622997;28;20164;-84
2022/10/19 07:16:37;;;;;;;9.73;8.63;;;;;;;;;;6621118;28;20183;-85
2022/10/19 07:19:48;;;;;;;10.87;8.50;;;;;;;;;;6609833;28;20196;-84
2022/10/19 07:22:58;;;;;;;8.57;7.77;;;;;;;;;;6622171;28;20168;-84
2022/10/19 07:26:17;;;;;;;10.60;7.70;;;;;;;;;;6621599;28;20202;-84
2022/10/19 07:29:27;;;;;;;12.67;8.40;;;;;;;;;;6622155;28;20544;-84
2022/10/19 07:32:37;;;;;;;10.37;7.93;;;;;;;;;;6621689;28;20210;-83
2022/10/19 07:35:47;;;;;;;10.80;9.00;;;;;;;;;;6621849;28;20621;-84
2022/10/19 07:38:59;;;;;;;9.17;8.27;;;;;;;;;;6607833;28;20200;-84
2022/10/19 07:42:10;;;;;;;10.10;7.97;;;;;;;;;;6601047;28;20266;-86
2022/10/19 07:45:20;;;;;;;9.83;8.47;;;;;;;;;;6595884;28;20179;-84
2022/10/19 07:48:30;;;;;;;12.07;8.97;;;;;;;;;;6608082;28;20172;-85
2022/10/19 07:51:41;;;;;;;10.93;8.00;;;;;;;;;;6621283;28;20209;-85
2022/10/19 07:54:52;;;;;;;10.13;7.73;;;;;;;;;;6622485;28;20172;-84
2022/10/19 07:58:02;;;;;;;11.07;8.17;;;;;;;;;;6621791;28;20242;-84
2022/10/19 08:01:14;;;;;;;10.37;8.20;;;;;;;;;;6621921;28;20231;-84
2022/10/19 08:04:24;;;;;;;10.23;7.57;;;;;;;;;;6622301;28;20182;-84
2022/10/19 08:07:35;;;;;;;8.13;7.33;;;;;;;;;;6605208;28;20175;-84
2022/10/19 08:10:45;;;;;;;9.53;7.80;;;;;;;;;;6622645;28;20172;-84
2022/10/19 08:13:58;;;;;;;10.10;8.20;;;;;;;;;;6622569;28;20210;-84
2022/10/19 08:17:10;;;;;;;11.70;8.83;;;;;;;;;;6604688;28;20550;-84
2022/10/19 08:20:20;;;;;;;8.20;7.40;;;;;;;;;;6604887;28;20677;-84
2022/10/19 08:23:31;;;;;;;7.03;6.33;;;;;;;;;;6621654;28;20168;-85
2022/10/19 08:26:41;;;;;;;8.37;7.43;;;;;;;;;;6622352;28;20176;-85
2022/10/19 08:29:51;;;;;;;10.10;7.30;;;;;;;;;;6622645;28;20515;-84
2022/10/19 08:33:04;;;;;;;7.93;7.20;;;;;;;;;;6621907;28;20172;-84
2022/10/19 08:36:14;;;;;;;8.23;7.33;;;;;;;;;;6621458;28;20172;-84
2022/10/19 08:39:24;;;;;;;8.47;6.97;;;;;;;;;;6621694;28;20249;-84
2022/10/19 08:42:34;;;;;;;9.03;7.60;;;;;;;;;;6621701;28;20171;-85
2022/10/19 08:46:11;;;;;;;8.43;7.63;;;;;;;;;;6603910;28;20606;-84
2022/10/19 08:49:23;;;;;;;11.17;7.83;;;;;;;;;;6617652;28;20226;-83
2022/10/19 08:52:34;;;;;;;11.13;7.97;;;;;;;;;;6625938;28;20599;-83
2022/10/19 08:55:57;;;;;;;9.80;6.90;;;;;;;;;;6626762;28;20227;-84
2022/10/19 08:59:12;;;;;;;8.33;6.10;;;;;;;;;;6626719;28;20196;-84
2022/10/19 09:02:40;;;;;;;7.30;6.03;;;;;;;;;;6626376;28;20168;-84
2022/10/19 09:06:00;;;;;;;6.90;5.80;;;;;;;;;;6626568;28;20650;-84
2022/10/19 09:09:14;;;;;;;6.20;5.60;;;;;;;;;;6626983;28;20555;-83
2022/10/19 09:12:33;;;;;;;6.30;4.57;;;;;;;;;;6609516;28;20644;-83
2022/10/19 09:15:45;;;;;;;4.77;4.27;;;;;;;;;;6625954;28;20551;-84
2022/10/19 09:18:55;;;;;;;6.53;4.37;;;;;;;;;;6626074;28;20192;-84
2022/10/19 09:22:17;;;;;;;4.30;3.90;;;;;;;;;;6627224;28;20263;-85
2022/10/19 09:25:28;;;;;;;4.83;4.17;;;;;;;;;;6626451;28;20163;-84
2022/10/19 09:28:47;;;;;;;6.33;4.63;;;;;;;;;;6625761;28;20199;-84
2022/10/19 09:32:00;;;;;;;6.73;3.90;;;;;;;;;;6607955;28;20184;-85
2022/10/19 09:35:28;;;;;;;6.40;4.37;;;;;;;;;;6625814;28;20222;-85
2022/10/19 09:38:39;;;;;;;4.30;3.90;;;;;;;;;;6626095;28;20493;-85
2022/10/19 09:41:51;;;;;;;5.87;4.20;;;;;;;;;;6625783;28;20195;-84
2022/10/19 09:45:18;;;;;;;4.43;3.90;;;;;;;;;;6625564;28;20175;-84
2022/10/19 09:48:46;;;;;;;4.17;3.70;;;;;;;;;;6626459;28;20164;-84
2022/10/19 09:51:57;;;;;;;4.77;3.80;;;;;;;;;;6626105;28;20524;-85
2022/10/19 09:55:13;;;;;;;4.30;3.90;;;;;;;;;;6625818;28;20181;-85
2022/10/19 09:58:25;;;;;;;6.73;3.73;;;;;;;;;;6624771;28;20603;-83
2022/10/19 10:01:36;;;;;;;7.80;3.80;;;;;;;;;;6624753;28;20172;-84
2022/10/19 10:04:54;;;;;;;4.03;3.63;;;;;;;;;;6625152;28;20171;-83
2022/10/19 10:08:12;;;;;;;5.20;3.90;;;;;;;;;;6625175;28;20156;-84
2022/10/19 10:11:23;;;;;;;3.83;3.50;;;;;;;;;;6624947;28;20172;-84
2022/10/19 10:14:35;;;;;;;3.80;3.40;;;;;;;;;;6624679;28;20163;-84
2022/10/19 10:17:47;;;;;;;3.50;3.20;;;;;;;;;;6625331;28;20174;-84
2022/10/19 10:20:59;;;;;;;3.30;3.00;;;;;;;;;;6606839;28;20703;-84
2022/10/19 10:24:09;;;;;;;3.77;3.10;;;;;;;;;;6624360;28;20172;-85
2022/10/19 10:27:33;;;;;;;3.57;3.27;;;;;;;;;;6624319;28;20168;-85
2022/10/19 10:30:45;;;;;;;4.07;3.40;;;;;;;;;;6607746;28;20620;-85
2022/10/19 10:34:04;;;;;;;3.50;3.20;;;;;;;;;;6624914;28;20191;-85
2022/10/19 10:37:28;;;;;;;3.53;3.10;;;;;;;;;;6625050;28;20156;-86
2022/10/19 10:40:39;;;;;;;4.60;3.53;;;;;;;;;;6624069;28;20583;-85
2022/10/19 10:43:54;;;;;;;3.27;2.87;;;;;;;;;;6623639;28;20180;-86
2022/10/19 10:47:11;;;;;;;3.67;3.07;;;;;;;;;;6624064;28;20172;-88
2022/10/19 10:50:23;;;;;;;3.77;3.37;;;;;;;;;;6624360;28;20204;-85
2022/10/19 10:53:38;;;;;;;3.63;3.20;;;;;;;;;;6623470;28;20202;-86
2022/10/19 10:57:11;;;;;;;4.23;3.57;;;;;;;;;;6623201;28;20231;-87
2022/10/19 11:00:23;;;;;;;3.93;3.27;;;;;;;;;;6624333;28;20195;-87
2022/10/19 11:03:34;;;;;;;3.47;3.10;;;;;;;;;;6623732;28;20183;-88
2022/10/19 11:06:50;;;;;;;3.93;3.27;;;;;;;;;;6624034;28;20198;-86
2022/10/19 11:10:12;;;;;;;4.30;3.30;;;;;;;;;;6623396;28;20171;-87
2022/10/19 11:13:29;;;;;;;3.20;2.90;;;;;;;;;;6623608;28;20241;-87
2022/10/19 11:16:41;;;;;;;3.47;2.93;;;;;;;;;;6623589;28;20244;-86
2022/10/19 11:19:52;;;;;;;3.57;3.07;;;;;;;;;;6621645;28;20207;-87
2022/10/19 11:23:13;;;;;;;2.53;2.43;;;;;;;;;;6622493;28;20628;-86
2022/10/19 11:26:34;;;;;;;4.07;2.70;;;;;;;;;;6605268;28;20176;-86
2022/10/19 11:29:47;;;;;;;3.73;3.20;;;;;;;;;;6622755;28;20186;-87
2022/10/19 11:33:05;;;;;;;3.47;3.03;;;;;;;;;;6622875;28;20172;-88
2022/10/19 11:36:41;;;;;;;4.20;2.93;;;;;;;;;;6623275;28;20183;-86
2022/10/19 11:39:54;;;;;;;5.63;3.00;;;;;;;;;;6623058;28;20566;-86
2022/10/19 11:43:30;;;;;;;3.97;3.20;;;;;;;;;;6604765;28;20633;-87
2022/10/19 11:46:48;;;;;;;4.87;3.37;;;;;;;;;;6591628;28;20282;-87
2022/10/19 11:50:07;;;;;;;4.47;3.70;;;;;;;;;;6622618;28;20187;-87
2022/10/19 11:53:23;;;;;;;3.13;2.90;;;;;;;;;;6622573;28;20161;-87
2022/10/19 11:56:34;;;;;;;3.73;3.43;;;;;;;;;;6621587;28;20231;-87
2022/10/19 11:59:47;;;;;;;4.40;3.00;;;;;;;;;;6622873;28;20640;-87
2022/10/19 12:03:11;;;;;;;5.03;3.33;;;;;;;;;;6622341;28;20201;-87
2022/10/19 12:06:23;;;;;;;3.80;3.40;;;;;;;;;;6623238;28;20597;-87
2022/10/19 12:09:59;;;;;;;3.43;3.13;;;;;;;;;;6622390;28;20203;-87
2022/10/19 12:13:13;;;;;;;3.93;3.53;;;;;;;;;;6623642;28;20242;-87
2022/10/19 12:16:28;;;;;;;3.30;3.00;;;;;;;;;;6622277;28;20172;-87
2022/10/19 12:19:41;;;;;;;3.33;3.03;;;;;;;;;;6622369;28;20206;-85
2022/10/19 12:22:51;;;;;;;3.27;2.50;;;;;;;;;;6622080;28;20203;-87
2022/10/19 12:26:04;;;;;;;3.33;2.50;;;;;;;;;;6606805;28;20190;-87
2022/10/19 12:29:20;;;;;;;2.60;2.40;;;;;;;;;;6627178;28;20202;-87
2022/10/19 12:32:36;;;;;;;2.70;2.50;;;;;;;;;;6627039;28;20542;-87
2022/10/19 12:36:05;;;;;;;2.50;2.30;;;;;;;;;;6627896;28;20164;-87
2022/10/19 12:39:18;;;;;;;2.83;2.47;;;;;;;;;;6609357;28;20558;-88
2022/10/19 12:42:32;;;;;;;2.60;2.40;;;;;;;;;;6627080;28;20176;-88
2022/10/19 12:45:47;;;;;;;3.10;2.10;;;;;;;;;;6626229;28;20506;-87
2022/10/19 12:49:16;;;;;;;3.13;2.77;;;;;;;;;;6627199;28;20176;-86
2022/10/19 12:52:43;;;;;;;3.63;2.77;;;;;;;;;;6626583;28;20183;-87
2022/10/19 12:56:09;;;;;;;2.93;2.70;;;;;;;;;;6626539;28;20311;-88
2022/10/19 12:59:23;;;;;;;2.67;2.47;;;;;;;;;;6626342;28;20200;-87
2022/10/19 13:02:35;;;;;;;3.20;2.50;;;;;;;;;;6626676;28;20176;-87
2022/10/19 13:05:56;;;;;;;3.60;2.47;;;;;;;;;;6626614;28;20521;-88
2022/10/19 13:09:08;;;;;;;3.10;2.80;;;;;;;;;;6626849;28;20171;-88
2022/10/19 13:12:22;;;;;;;3.83;3.30;;;;;;;;;;6609305;28;20522;-88
2022/10/19 13:15:32;;;;;;;3.30;3.00;;;;;;;;;;6626439;28;20698;-89
2022/10/19 13:18:58;;;;;;;5.07;3.97;;;;;;;;;;6608796;28;20180;-87
2022/10/19 13:22:25;;;;;;;6.83;4.10;;;;;;;;;;6626815;28;20199;-87
2022/10/19 13:25:44;;;;;;;10.90;7.43;;;;;;;;;;6626725;28;20251;-87
2022/10/19 13:28:55;;;;;;;3.50;3.20;;;;;;;;;;6625762;28;20167;-88
2022/10/19 13:32:23;;;;;;;3.07;2.87;;;;;;;;;;6625479;28;20255;-86
2022/10/19 13:35:34;;;;;;;3.03;2.80;;;;;;;;;;6625514;28;20533;-86
2022/10/19 13:38:48;;;;;;;3.97;2.87;;;;;;;;;;6625245;28;20168;-87
2022/10/19 13:41:58;;;;;;;4.03;3.23;;;;;;;;;;6625438;28;20221;-87
2022/10/19 13:45:20;;;;;;;3.23;2.67;;;;;;;;;;6625440;28;20167;-86
2022/10/19 13:48:36;;;;;;;3.27;2.97;;;;;;;;;;6625267;28;20168;-86
2022/10/19 13:52:05;;;;;;;3.93;2.97;;;;;;;;;;6625385;28;20171;-86
2022/10/19 13:55:15;;;;;;;2.77;2.57;;;;;;;;;;6625139;28;20246;-86
2022/10/19 13:58:31;;;;;;;3.80;2.70;;;;;;;;;;6625665;28;20659;-86
2022/10/19 14:01:50;;;;;;;2.63;2.43;;;;;;;;;;6625417;28;20654;-87
2022/10/19 14:05:35;;;;;;;3.43;2.43;;;;;;;;;;6608085;28;20620;-86
2022/10/19 14:09:05;;;;;;;3.23;2.80;;;;;;;;;;6622522;28;20184;-86
2022/10/19 14:12:23;;;;;;;2.37;2.27;;;;;;;;;;6624319;28;20178;-87
2022/10/19 14:15:34;;;;;;;2.23;2.07;;;;;;;;;;6624884;28;20172;-87
2022/10/19 14:18:51;;;;;;;3.10;2.80;;;;;;;;;;6624587;28;20164;-86
2022/10/19 14:22:16;;;;;;;3.57;2.90;;;;;;;;;;6624400;28;20514;-86
2022/10/19 14:25:27;;;;;;;4.97;4.00;;;;;;;;;;6624643;28;20162;-86
2022/10/19 14:28:38;;;;;;;4.67;3.67;;;;;;;;;;6607222;28;20175;-87
2022/10/19 14:31:49;;;;;;;3.80;3.00;;;;;;;;;;6623862;28;20577;-86
2022/10/19 14:35:04;;;;;;;4.23;3.53;;;;;;;;;;6624292;28;20172;-85
2022/10/19 14:38:17;;;;;;;3.97;3.50;;;;;;;;;;6624044;28;20164;-85
2022/10/19 14:41:29;;;;;;;3.73;3.07;;;;;;;;;;6623730;28;20545;-86
2022/10/19 14:44:41;;;;;;;5.13;3.50;;;;;;;;;;6624348;28;20167;-86
2022/10/19 14:47:59;;;;;;;4.47;2.93;;;;;;;;;;6623317;28;20164;-86
2022/10/19 14:51:29;;;;;;;3.37;3.03;;;;;;;;;;6622056;28;20207;-87
2022/10/19 14:54:42;;;;;;;3.43;2.53;;;;;;;;;;6621078;28;20202;-86
2022/10/19 14:57:53;;;;;;;2.50;2.30;;;;;;;;;;6620951;28;20366;-85
2022/10/19 15:01:03;;;;;;;2.90;2.37;;;;;;;;;;6621692;28;20191;-86
2022/10/19 15:04:19;;;;;;;2.60;2.40;;;;;;;;;;6621769;28;20183;-86
2022/10/19 15:07:29;;;;;;;2.30;2.10;;;;;;;;;;6620924;28;20302;-86
2022/10/19 15:10:41;;;;;;;2.80;2.60;;;;;;;;;;6622503;28;20175;-85
2022/10/19 15:14:04;;;;;;;2.60;2.40;;;;;;;;;;6623123;28;20654;-85
2022/10/19 15:17:34;;;;;;;2.40;2.20;;;;;;;;;;6623106;28;20557;-85
2022/10/19 15:20:45;;;;;;;2.30;2.10;;;;;;;;;;6623639;28;20203;-85
2022/10/19 15:24:04;;;;;;;2.17;1.97;;;;;;;;;;6623433;28;20175;-85
2022/10/19 15:27:18;;;;;;;3.07;2.30;;;;;;;;;;6623104;28;20558;-86
2022/10/19 15:30:31;;;;;;;2.67;2.47;;;;;;;;;;6604817;28;20274;-85
2022/10/19 15:33:47;;;;;;;3.63;2.53;;;;;;;;;;6622291;28;20246;-84
2022/10/19 15:36:59;;;;;;;3.67;2.80;;;;;;;;;;6622784;28;20180;-85
2022/10/19 15:40:11;;;;;;;3.53;3.23;;;;;;;;;;6622931;28;20270;-85
2022/10/19 15:43:33;;;;;;;3.53;3.23;;;;;;;;;;6622435;28;20195;-86
2022/10/19 15:46:46;;;;;;;3.00;2.80;;;;;;;;;;6622390;28;20514;-85
2022/10/19 15:49:58;;;;;;;3.40;3.10;;;;;;;;;;6621974;28;20171;-85
2022/10/19 15:53:08;;;;;;;5.07;3.53;;;;;;;;;;6622252;28;20218;-84
2022/10/19 15:56:19;;;;;;;6.43;4.17;;;;;;;;;;6621801;28;20259;-85
2022/10/19 15:59:29;;;;;;;6.47;4.80;;;;;;;;;;6622061;28;20203;-85
2022/10/19 16:02:40;;;;;;;9.70;7.17;;;;;;;;;;6622173;28;20179;-86
2022/10/19 16:05:50;;;;;;;10.33;6.43;;;;;;;;;;6621838;28;20693;-84
2022/10/19 16:09:01;;;;;;;8.80;4.70;;;;;;;;;;6621649;28;20175;-84
2022/10/19 16:12:12;;;;;;;6.80;4.03;;;;;;;;;;6621859;28;20184;-85
2022/10/19 16:15:23;;;;;;;6.50;4.40;;;;;;;;;;6622356;28;20180;-85
2022/10/19 16:18:33;;;;;;;7.30;4.53;;;;;;;;;;6621945;28;20171;-84
2022/10/19 16:21:43;;;;;;;6.50;4.47;;;;;;;;;;6621762;28;20297;-85
2022/10/19 16:24:54;;;;;;;7.40;4.53;;;;;;;;;;6621471;28;20187;-85
2022/10/19 16:28:04;;;;;;;5.50;4.30;;;;;;;;;;6621853;28;20172;-84
2022/10/19 16:31:15;;;;;;;6.77;4.73;;;;;;;;;;6622123;28;20258;-84
2022/10/19 16:34:26;;;;;;;5.70;4.77;;;;;;;;;;6621937;28;20179;-85
2022/10/19 16:37:36;;;;;;;8.17;6.33;;;;;;;;;;6604058;28;20187;-85
2022/10/19 16:40:46;;;;;;;6.20;4.93;;;;;;;;;;6621887;28;20203;-85
2022/10/19 16:43:57;;;;;;;5.60;4.50;;;;;;;;;;6605099;28;20266;-84
2022/10/19 16:47:07;;;;;;;5.13;4.50;;;;;;;;;;6621531;28;20179;-84
2022/10/19 16:50:17;;;;;;;6.73;4.77;;;;;;;;;;6621543;28;20543;-84
2022/10/19 16:53:28;;;;;;;5.87;4.60;;;;;;;;;;6622146;28;20164;-84
2022/10/19 16:56:43;;;;;;;6.63;5.10;;;;;;;;;;6621772;28;20323;-85
2022/10/19 16:59:53;;;;;;;5.80;4.60;;;;;;;;;;6621498;28;20244;-84
2022/10/19 17:03:04;;;;;;;5.37;4.50;;;;;;;;;;6622098;28;20180;-84
2022/10/19 17:06:14;;;;;;;5.03;3.73;;;;;;;;;;6622162;28;20514;-84
2022/10/19 17:09:25;;;;;;;4.07;3.67;;;;;;;;;;6604698;28;20175;-85
2022/10/19 17:12:39;;;;;;;4.00;3.50;;;;;;;;;;6624660;28;20273;-86
2022/10/19 17:15:50;;;;;;;5.27;4.10;;;;;;;;;;6626961;28;20306;-86
2022/10/19 17:19:01;;;;;;;5.63;4.93;;;;;;;;;;6626916;28;20195;-86
2022/10/19 17:22:12;;;;;;;9.30;7.00;;;;;;;;;;6626306;28;20164;-85
2022/10/19 17:25:22;;;;;;;7.47;5.07;;;;;;;;;;6625765;28;20167;-83
2022/10/19 17:28:33;;;;;;;4.97;4.10;;;;;;;;;;6626412;28;20171;-85
2022/10/19 17:31:44;;;;;;;6.07;5.43;;;;;;;;;;6626167;28;20531;-84
2022/10/19 17:34:54;;;;;;;5.50;5.00;;;;;;;;;;6625494;28;20262;-84
2022/10/19 17:38:04;;;;;;;6.50;5.20;;;;;;;;;;6626456;28;20164;-84
2022/10/19 17:41:16;;;;;;;5.40;4.90;;;;;;;;;;6626007;28;20277;-84
2022/10/19 17:44:27;;;;;;;3.90;3.40;;;;;;;;;;6625289;28;20179;-85
2022/10/19 17:47:37;;;;;;;5.67;4.20;;;;;;;;;;6625685;28;20171;-84
2022/10/19 17:50:54;;;;;;;5.60;4.80;;;;;;;;;;6626022;28;20319;-84
2022/10/19 17:54:06;;;;;;;12.47;8.50;;;;;;;;;;6625522;28;20513;-84
2022/10/19 17:57:16;;;;;;;16.80;13.00;;;;;;;;;;6625650;28;20255;-84
2022/10/19 18:00:27;;;;;;;24.60;19.27;;;;;;;;;;6607483;28;20660;-84
2022/10/19 18:03:38;;;;;;;47.73;30.17;;;;;;;;;;6624821;28;20172;-84
2022/10/19 18:06:48;;;;;;;23.57;16.20;;;;;;;;;;6625914;28;20168;-84
2022/10/19 18:09:58;;;;;;;22.17;16.27;;;;;;;;;;6625536;28;20613;-84
2022/10/19 18:13:09;;;;;;;26.70;18.87;;;;;;;;;;6625288;28;20172;-84
2022/10/19 18:16:23;;;;;;;15.93;12.27;;;;;;;;;;6624472;28;20171;-84
2022/10/19 18:19:34;;;;;;;14.43;10.47;;;;;;;;;;6624138;28;20204;-84
2022/10/19 18:22:44;;;;;;;13.77;8.13;;;;;;;;;;6623798;28;20179;-85
2022/10/19 18:25:54;;;;;;;9.97;6.60;;;;;;;;;;6624416;28;20241;-83
2022/10/19 18:29:09;;;;;;;8.10;5.87;;;;;;;;;;6625135;28;20203;-83
2022/10/19 18:32:20;;;;;;;6.67;5.17;;;;;;;;;;6624047;28;20576;-83
2022/10/19 18:35:37;;;;;;;18.73;11.93;;;;;;;;;;6624806;28;20234;-83
2022/10/19 18:38:52;;;;;;;25.47;15.17;;;;;;;;;;6624488;28;20259;-83
2022/10/19 18:42:02;;;;;;;11.70;8.13;;;;;;;;;;6623766;28;20186;-83
2022/10/19 18:45:13;;;;;;;12.33;8.47;;;;;;;;;;6624030;28;20172;-83
2022/10/19 18:48:24;;;;;;;15.77;10.47;;;;;;;;;;6624654;28;20174;-83
2022/10/19 18:51:34;;;;;;;15.17;9.10;;;;;;;;;;6623576;28;20167;-83
2022/10/19 18:54:45;;;;;;;12.70;7.90;;;;;;;;;;6623522;28;20526;-83
2022/10/19 18:57:55;;;;;;;8.70;6.43;;;;;;;;;;6624194;28;20239;-83
2022/10/19 19:01:09;;;;;;;8.37;6.23;;;;;;;;;;6623235;28;20555;-83
2022/10/19 19:04:20;;;;;;;8.50;6.67;;;;;;;;;;6623738;28;20202;-84
2022/10/19 19:07:30;;;;;;;12.93;6.70;;;;;;;;;;6623538;28;20175;-84
2022/10/19 19:10:40;;;;;;;6.67;5.67;;;;;;;;;;6623764;28;20168;-83